Alvin, Wisconsin
Current Conditions -  °F | °C
As of 7:35 PM on Thursday 27 Nov 2014 (Local Time) from KEGV Reporting Station
Clear Clear  
Wind Chill: -19°   Ceiling: Unl
Heat Index: -19°   Visibility: 10mi
Dew Point: -21°   Wind: 0mph
Humidity: 83%   Direction: NA
Pressure: 30.26"   Gusts: NA
Location:  45.9186°N, 88.7601°W
Report Text: KEGV 280135Z AUTO 00000KT 10SM CLR M19/M21 A3026 RMK AO2 T11901213
Loading
Personal Weather Stations






























Interactive Weather Map New forecast layout! Learn more

10-Day Weather Forecast

Advertisements
Track Severe Weather on mobile